Time;durP1;ratioP1;P1;durP2;ratioP2;P2;SDS_P1;SDS_P2;PMS_P1;PMS_P2;Temp;Humidity;BMP_temperature;BMP_pressure;BME280_temperature;BME280_humidity;BME280_pressure;Samples;Min_cycle;Max_cycle;Signal;HPM_P1;HPM_P2
2023/03/27 00:01:06;;;;;;;8.57;3.50;;;;;;;5.40;82.98;99752.75;5027071;28;20729;-73
2023/03/27 00:03:33;;;;;;;7.17;3.00;;;;;;;5.42;82.73;99754.56;5025468;28;20651;-73
2023/03/27 00:06:05;;;;;;;10.47;3.70;;;;;;;5.38;84.15;99757.09;5023806;28;20199;-73
2023/03/27 00:08:32;;;;;;;12.87;4.10;;;;;;;5.28;83.96;99762.13;5024749;28;20202;-73
2023/03/27 00:10:59;;;;;;;10.83;3.37;;;;;;;5.26;83.42;99768.19;5023738;28;20226;-73
2023/03/27 00:13:27;;;;;;;8.87;3.27;;;;;;;5.22;83.61;99787.34;5026277;28;20223;-72
2023/03/27 00:15:56;;;;;;;12.70;2.93;;;;;;;5.15;81.83;99796.75;5027608;28;20229;-73
2023/03/27 00:18:23;;;;;;;6.50;2.10;;;;;;;5.07;78.80;99800.06;5028113;28;20264;-73
2023/03/27 00:20:50;;;;;;;8.10;2.00;;;;;;;4.90;77.79;99797.00;5028086;28;20779;-73
2023/03/27 00:23:18;;;;;;;4.37;2.03;;;;;;;4.81;78.25;99815.13;5024673;28;20213;-72
2023/03/27 00:25:48;;;;;;;8.23;2.30;;;;;;;4.69;78.38;99826.16;5027238;28;20459;-73
2023/03/27 00:28:16;;;;;;;8.00;2.30;;;;;;;4.55;78.58;99838.00;5024204;28;20742;-73
2023/03/27 00:30:43;;;;;;;4.40;2.03;;;;;;;4.39;78.94;99839.28;5021223;28;20710;-73
2023/03/27 00:33:11;;;;;;;9.07;2.10;;;;;;;4.28;78.82;99849.44;5020859;28;20200;-73
2023/03/27 00:35:37;;;;;;;6.00;1.83;;;;;;;4.19;78.97;99843.06;5026976;28;20208;-73
2023/03/27 00:38:04;;;;;;;6.13;1.80;;;;;;;4.09;79.53;99861.13;5026441;28;20547;-73
2023/03/27 00:40:31;;;;;;;4.13;1.80;;;;;;;3.92;81.69;99862.31;5025476;28;20201;-73
2023/03/27 00:42:58;;;;;;;9.37;1.97;;;;;;;3.88;81.31;99873.53;5029947;28;20575;-73
2023/03/27 00:45:28;;;;;;;7.93;1.80;;;;;;;3.82;82.39;99870.72;5030396;28;20200;-73
2023/03/27 00:47:59;;;;;;;8.03;2.20;;;;;;;3.74;81.77;99861.75;5031017;28;20671;-73
2023/03/27 00:50:31;;;;;;;8.83;2.43;;;;;;;3.65;81.77;99867.59;5027568;28;20235;-72
2023/03/27 00:53:03;;;;;;;9.00;2.30;;;;;;;3.57;81.34;99863.81;5030695;28;20211;-73
2023/03/27 00:55:35;;;;;;;6.83;2.23;;;;;;;3.46;81.65;99883.50;5030962;28;20867;-73
2023/03/27 00:58:08;;;;;;;11.37;1.70;;;;;;;3.37;81.42;99883.22;5028437;28;20729;-73
2023/03/27 01:00:35;;;;;;;3.43;1.30;;;;;;;3.32;81.57;99898.75;5030713;28;20208;-72
2023/03/27 01:03:04;;;;;;;5.83;1.30;;;;;;;3.31;80.68;99896.09;5031660;28;20247;-73
2023/03/27 01:05:32;;;;;;;1.43;0.93;;;;;;;3.22;80.36;99898.41;5024985;28;20690;-73
2023/03/27 01:07:59;;;;;;;6.33;1.47;;;;;;;3.11;81.08;99905.84;5030469;28;20203;-73
2023/03/27 01:10:45;;;;;;;11.70;2.13;;;;;;;2.95;81.94;99909.66;5027657;28;20203;-73
2023/03/27 01:13:47;;;;;;;8.83;1.17;;;;;;;2.82;82.14;99918.81;5026324;28;20671;-73
2023/03/27 01:16:26;;;;;;;6.40;1.87;;;;;;;2.60;83.10;99926.66;5025474;28;20198;-73
2023/03/27 01:19:10;;;;;;;4.03;1.33;;;;;;;2.59;82.96;99937.97;5029205;28;20625;-73
2023/03/27 01:22:03;;;;;;;3.83;1.40;;;;;;;2.38;83.88;99940.63;5026949;28;20246;-73
2023/03/27 01:24:39;;;;;;;5.43;1.70;;;;;;;2.37;83.32;99957.13;5028308;28;20211;-73
2023/03/27 01:27:15;;;;;;;6.40;1.70;;;;;;;2.22;83.98;99969.63;5030984;28;20230;-73
2023/03/27 01:30:17;;;;;;;5.10;1.30;;;;;;;2.33;82.73;99983.09;5028476;28;20214;-73
2023/03/27 01:32:58;;;;;;;6.47;1.30;;;;;;;2.16;84.03;99990.28;5023545;28;20247;-73
2023/03/27 01:35:39;;;;;;;3.07;1.40;;;;;;;2.08;83.92;100002.13;5029800;28;20224;-73
2023/03/27 01:38:27;;;;;;;4.40;1.57;;;;;;;1.97;84.41;99998.16;5026550;28;20659;-73
2023/03/27 01:41:13;;;;;;;8.73;1.43;;;;;;;1.86;85.09;100005.56;5025505;28;20234;-74
2023/03/27 01:43:56;;;;;;;6.53;1.63;;;;;;;1.89;84.15;100011.81;5028569;28;20671;-73
2023/03/27 01:46:25;;;;;;;3.50;1.37;;;;;;;1.98;83.88;100031.28;5023170;28;20299;-73
2023/03/27 01:49:05;;;;;;;6.27;1.43;;;;;;;2.04;82.60;100026.34;5027509;28;20200;-73
2023/03/27 01:51:36;;;;;;;7.60;2.13;;;;;;;1.99;83.56;100040.91;5021846;28;20226;-73
2023/03/27 01:54:10;;;;;;;6.47;1.47;;;;;;;2.17;81.62;100041.69;5025721;28;20290;-73
2023/03/27 01:56:44;;;;;;;7.10;1.73;;;;;;;2.09;82.37;100035.25;5018629;28;20647;-73
2023/03/27 01:59:17;;;;;;;4.33;1.43;;;;;;;2.01;81.76;100045.38;5023084;28;20663;-73
2023/03/27 02:01:52;;;;;;;9.00;1.70;;;;;;;2.18;81.50;100043.47;5030159;28;20254;-73
2023/03/27 02:04:26;;;;;;;5.93;1.67;;;;;;;2.14;81.13;100044.16;5021236;28;20578;-73
2023/03/27 02:07:01;;;;;;;7.43;1.50;;;;;;;2.26;80.54;100051.59;5029660;28;20730;-73
2023/03/27 02:09:36;;;;;;;5.60;1.40;;;;;;;2.27;80.63;100051.66;5027637;28;20619;-73
2023/03/27 02:12:28;;;;;;;7.30;1.30;;;;;;;2.34;80.38;100055.41;5029494;28;20508;-73
2023/03/27 02:15:01;;;;;;;8.03;1.53;;;;;;;2.40;80.07;100061.81;5027845;28;20203;-73
2023/03/27 02:18:03;;;;;;;4.37;1.20;;;;;;;2.23;81.41;100067.16;5019824;28;20207;-73
2023/03/27 02:20:32;;;;;;;4.83;1.37;;;;;;;2.06;81.94;100075.19;5029531;28;20564;-73
2023/03/27 02:23:02;;;;;;;3.57;1.30;;;;;;;2.05;81.30;100078.63;5028085;28;20207;-73
2023/03/27 02:25:35;;;;;;;5.60;1.57;;;;;;;1.97;81.53;100082.63;5023457;28;20245;-73
2023/03/27 02:28:10;;;;;;;8.30;1.90;;;;;;;1.77;82.77;100101.78;5027424;28;20199;-73
2023/03/27 02:31:00;;;;;;;5.73;1.70;;;;;;;1.88;82.75;100101.41;5021489;28;20629;-73
2023/03/27 02:34:10;;;;;;;5.10;1.13;;;;;;;1.86;82.25;100110.00;5023386;28;20199;-73
2023/03/27 02:37:01;;;;;;;5.53;1.40;;;;;;;1.76;82.26;100111.31;5021733;28;20234;-73
2023/03/27 02:39:53;;;;;;;2.73;1.30;;;;;;;1.69;82.80;100109.28;5026512;28;20203;-74
2023/03/27 02:42:32;;;;;;;1.87;1.27;;;;;;;1.98;80.41;100117.47;5026344;28;20224;-73
2023/03/27 02:45:14;;;;;;;8.00;2.10;;;;;;;2.05;79.83;100104.75;5028978;28;20296;-73
2023/03/27 02:47:51;;;;;;;4.87;1.60;;;;;;;2.04;80.15;100115.13;5025881;28;20711;-73
2023/03/27 02:50:23;;;;;;;5.53;1.10;;;;;;;1.90;80.84;100119.75;5028958;28;20507;-73
2023/03/27 02:52:55;;;;;;;7.03;1.60;;;;;;;1.88;80.59;100124.00;5026380;28;20226;-73
2023/03/27 02:55:34;;;;;;;9.23;2.03;;;;;;;1.74;81.42;100122.53;5029282;28;20230;-73
2023/03/27 02:58:15;;;;;;;6.53;1.27;;;;;;;1.92;80.19;100136.38;5025939;28;20592;-73
2023/03/27 03:00:47;;;;;;;7.90;1.50;;;;;;;1.82;81.79;100128.97;5022623;28;20203;-73
2023/03/27 03:03:43;;;;;;;3.93;1.13;;;;;;;1.82;80.71;100157.69;5028615;28;20480;-73
2023/03/27 03:06:10;;;;;;;4.40;1.23;;;;;;;1.89;80.42;100154.50;5021044;28;20207;-73
2023/03/27 03:08:37;;;;;;;6.73;1.80;;;;;;;1.73;81.49;100157.28;5026269;28;20205;-73
2023/03/27 03:11:08;;;;;;;5.70;1.57;;;;;;;1.52;82.66;100159.81;5027050;28;20320;-73
2023/03/27 03:13:35;;;;;;;5.60;1.40;;;;;;;1.64;82.37;100168.22;5022373;28;20364;-73
2023/03/27 03:16:01;;;;;;;9.20;1.43;;;;;;;1.49;83.32;100175.31;5027076;28;20229;-73
2023/03/27 03:18:28;;;;;;;5.20;1.80;;;;;;;1.45;83.16;100176.91;5022098;28;20207;-73
2023/03/27 03:20:54;;;;;;;3.53;1.30;;;;;;;1.53;82.90;100183.34;5024063;28;20276;-73
2023/03/27 03:23:21;;;;;;;6.00;1.43;;;;;;;1.61;82.77;100177.63;5026745;28;20214;-73
2023/03/27 03:25:55;;;;;;;7.67;1.37;;;;;;;1.78;81.44;100184.47;5027861;28;20716;-73
2023/03/27 03:28:24;;;;;;;3.23;1.30;;;;;;;1.92;81.02;100196.44;5026053;28;20247;-73
2023/03/27 03:30:52;;;;;;;7.67;2.00;;;;;;;1.85;81.24;100191.75;5029103;28;20205;-73
2023/03/27 03:33:20;;;;;;;7.93;1.00;;;;;;;1.96;79.83;100200.06;5027848;28;20199;-73
2023/03/27 03:35:48;;;;;;;5.57;1.50;;;;;;;1.99;79.93;100202.81;5021802;28;20212;-73
2023/03/27 03:38:23;;;;;;;4.17;1.30;;;;;;;1.92;80.48;100204.25;5025883;28;20202;-73
2023/03/27 03:40:52;;;;;;;3.00;1.30;;;;;;;1.87;80.42;100216.22;5027720;28;20680;-73
2023/03/27 03:43:20;;;;;;;2.80;1.33;;;;;;;1.88;80.76;100231.94;5027170;28;20730;-73
2023/03/27 03:45:47;;;;;;;4.60;1.20;;;;;;;2.08;79.69;100230.25;5028595;28;20213;-73
2023/03/27 03:48:15;;;;;;;3.77;1.17;;;;;;;1.94;80.38;100239.16;5026933;28;20214;-73
2023/03/27 03:50:43;;;;;;;4.60;1.30;;;;;;;1.84;81.35;100253.53;5024755;28;20199;-73
2023/03/27 03:53:11;;;;;;;5.10;1.50;;;;;;;1.92;81.15;100261.69;5022576;28;20210;-74
2023/03/27 03:55:37;;;;;;;4.50;1.30;;;;;;;1.87;81.90;100271.03;5027560;28;20198;-73
2023/03/27 03:58:04;;;;;;;4.70;1.30;;;;;;;1.82;81.93;100275.16;5029103;28;20199;-73
2023/03/27 04:00:36;;;;;;;4.47;1.27;;;;;;;1.74;83.31;100280.03;5024195;28;20206;-73
2023/03/27 04:03:06;;;;;;;3.30;1.20;;;;;;;1.70;83.18;100279.84;5027359;28;20301;-73
2023/03/27 04:05:33;;;;;;;6.83;1.60;;;;;;;1.56;83.93;100277.44;5021216;28;20202;-73
2023/03/27 04:08:01;;;;;;;7.33;1.60;;;;;;;1.70;83.23;100283.34;5027940;28;20269;-73
2023/03/27 04:10:29;;;;;;;2.73;1.13;;;;;;;1.70;83.55;100300.72;5023846;28;20661;-73
2023/03/27 04:12:57;;;;;;;3.03;1.27;;;;;;;1.67;83.81;100292.75;5024770;28;20766;-73
2023/03/27 04:15:24;;;;;;;3.77;1.23;;;;;;;1.83;82.68;100306.56;5021612;28;20203;-73
2023/03/27 04:17:51;;;;;;;7.40;1.90;;;;;;;1.96;81.61;100302.78;5029325;28;20227;-73
2023/03/27 04:20:17;;;;;;;5.43;1.77;;;;;;;1.92;82.73;100331.31;5029876;28;20199;-73
2023/03/27 04:22:46;;;;;;;2.87;1.27;;;;;;;1.91;82.50;100325.19;5031378;28;20263;-73
2023/03/27 04:25:16;;;;;;;2.37;1.30;;;;;;;1.88;82.84;100331.16;5031549;28;20248;-74
2023/03/27 04:27:43;;;;;;;7.07;1.60;;;;;;;1.78;83.15;100333.28;5029085;28;20202;-74
2023/03/27 04:30:14;;;;;;;5.83;1.50;;;;;;;1.80;83.55;100339.47;5024161;28;20199;-74
2023/03/27 04:32:40;;;;;;;3.60;1.30;;;;;;;1.77;83.43;100344.56;5024470;28;20215;-73
2023/03/27 04:35:09;;;;;;;9.03;1.43;;;;;;;1.67;84.57;100340.63;5028351;28;20690;-73
2023/03/27 04:37:40;;;;;;;5.80;1.30;;;;;;;1.77;83.60;100347.16;5019733;28;20204;-73
2023/03/27 04:40:09;;;;;;;8.53;1.63;;;;;;;1.71;83.69;100355.59;5025892;28;20209;-74
2023/03/27 04:42:42;;;;;;;4.37;1.30;;;;;;;1.65;83.93;100375.31;5031101;28;20661;-73
2023/03/27 04:45:19;;;;;;;6.40;1.73;;;;;;;1.65;83.79;100375.31;5026333;28;20254;-74
2023/03/27 04:47:47;;;;;;;7.17;1.60;;;;;;;1.69;83.96;100374.63;5026083;28;20205;-74
2023/03/27 04:50:14;;;;;;;13.50;1.87;;;;;;;1.64;84.37;100397.00;5026368;28;20682;-73
2023/03/27 04:52:41;;;;;;;4.13;1.70;;;;;;;1.68;84.45;100394.63;5036335;28;20227;-74
2023/03/27 04:55:07;;;;;;;3.93;1.47;;;;;;;1.73;84.25;100407.88;5027523;28;20199;-74
2023/03/27 04:57:34;;;;;;;3.00;1.47;;;;;;;1.73;84.64;100406.16;5029652;28;20698;-73
2023/03/27 05:00:13;;;;;;;5.80;1.50;;;;;;;1.75;83.89;100408.84;5029434;28;20227;-74
2023/03/27 05:02:40;;;;;;;4.90;1.23;;;;;;;1.77;83.78;100392.44;5030510;28;20232;-73
2023/03/27 05:05:07;;;;;;;10.23;2.20;;;;;;;1.71;84.15;100405.19;5027175;28;20293;-74
2023/03/27 05:07:34;;;;;;;7.47;1.90;;;;;;;1.60;85.15;100411.59;5029893;28;20744;-74
2023/03/27 05:10:01;;;;;;;4.77;1.93;;;;;;;1.68;84.80;100417.22;5031705;28;20202;-74
2023/03/27 05:12:27;;;;;;;3.90;1.53;;;;;;;1.72;84.66;100414.81;5028330;28;20313;-73
2023/03/27 05:14:54;;;;;;;3.33;1.63;;;;;;;1.75;84.08;100424.50;5025256;28;20196;-73
2023/03/27 05:17:24;;;;;;;3.37;1.30;;;;;;;1.71;84.63;100439.13;5022239;28;20198;-74
2023/03/27 05:19:50;;;;;;;6.97;1.90;;;;;;;1.72;84.19;100442.63;5023492;28;20207;-73
2023/03/27 05:22:17;;;;;;;3.73;1.60;;;;;;;1.68;85.18;100451.13;5023925;28;22160;-73
2023/03/27 05:24:44;;;;;;;8.43;1.67;;;;;;;1.65;84.94;100454.50;5019408;28;20218;-73
2023/03/27 05:27:10;;;;;;;7.87;2.03;;;;;;;1.60;85.38;100461.19;5027106;28;20206;-74
2023/03/27 05:29:36;;;;;;;5.30;2.03;;;;;;;1.61;85.65;100467.31;5032274;28;20763;-74
2023/03/27 05:32:13;;;;;;;3.50;1.80;;;;;;;1.57;85.50;100477.56;5025273;28;20222;-73
2023/03/27 05:34:39;;;;;;;9.60;2.10;;;;;;;1.48;85.91;100477.13;5024397;28;20208;-74
2023/03/27 05:37:05;;;;;;;7.77;1.97;;;;;;;1.52;85.66;100480.78;5018541;28;20204;-76
2023/03/27 05:39:32;;;;;;;10.63;1.83;;;;;;;1.43;86.13;100483.81;5015587;28;20194;-74
2023/03/27 05:41:58;;;;;;;5.90;1.90;;;;;;;1.38;86.63;100492.25;5026893;28;20711;-75
2023/03/27 05:44:25;;;;;;;4.53;1.97;;;;;;;1.38;87.11;100498.34;5025463;28;20231;-75
2023/03/27 05:46:51;;;;;;;13.67;2.03;;;;;;;1.46;86.34;100503.97;5023993;28;20256;-75
2023/03/27 05:49:18;;;;;;;8.13;2.20;;;;;;;1.47;86.48;100510.97;5023055;28;20209;-72
2023/03/27 05:51:44;;;;;;;9.67;2.43;;;;;;;1.50;86.09;100514.63;5021386;28;20271;-73
2023/03/27 05:54:12;;;;;;;7.40;2.47;;;;;;;1.63;86.52;100523.09;5025249;28;20605;-72
2023/03/27 05:56:39;;;;;;;9.73;2.50;;;;;;;1.99;84.99;100526.63;5028551;28;20198;-72
2023/03/27 05:59:05;;;;;;;6.13;1.73;;;;;;;2.16;83.51;100531.88;5025681;28;20193;-73
2023/03/27 06:01:34;;;;;;;8.37;2.30;;;;;;;1.96;84.77;100537.84;5022939;28;20667;-75
2023/03/27 06:04:03;;;;;;;6.20;2.10;;;;;;;1.85;85.45;100539.00;5008791;28;20606;-77
2023/03/27 06:06:31;;;;;;;5.60;2.07;;;;;;;1.86;85.23;100543.41;5018845;28;20204;-73
2023/03/27 06:08:58;;;;;;;7.57;1.90;;;;;;;1.86;85.71;100552.16;5021594;28;20265;-74
2023/03/27 06:11:24;;;;;;;10.63;2.23;;;;;;;1.94;85.29;100552.53;5024832;28;20218;-76
2023/03/27 06:13:51;;;;;;;8.27;2.20;;;;;;;1.96;85.53;100558.72;5027577;28;20222;-76
2023/03/27 06:16:19;;;;;;;4.83;1.50;;;;;;;2.15;83.75;100566.66;5027103;28;20210;-75
2023/03/27 06:18:46;;;;;;;6.20;2.27;;;;;;;2.25;85.39;100569.72;5028797;28;20198;-78
2023/03/27 06:21:13;;;;;;;6.87;1.93;;;;;;;2.25;84.77;100573.25;5023117;28;20291;-79
2023/03/27 06:23:39;;;;;;;10.07;2.27;;;;;;;2.24;84.61;100576.69;5026047;28;20304;-75
2023/03/27 06:26:06;;;;;;;6.10;2.57;;;;;;;2.33;83.32;100590.19;5020194;28;20226;-76
2023/03/27 06:28:32;;;;;;;5.27;2.40;;;;;;;2.40;83.89;100600.16;5019975;28;20231;-77
2023/03/27 06:30:58;;;;;;;7.17;2.40;;;;;;;2.57;83.48;100600.06;5024916;28;20241;-78
2023/03/27 06:33:28;;;;;;;8.07;2.37;;;;;;;2.60;82.61;100608.06;5028128;28;20253;-78
2023/03/27 06:35:59;;;;;;;6.07;2.37;;;;;;;2.61;82.82;100602.91;5025179;28;20202;-77
2023/03/27 06:38:30;;;;;;;7.33;2.37;;;;;;;2.77;82.64;100607.13;5022147;28;20214;-76
2023/03/27 06:40:58;;;;;;;6.57;2.53;;;;;;;2.83;81.41;100613.56;5029179;28;20226;-77
2023/03/27 06:43:25;;;;;;;3.40;1.90;;;;;;;3.03;79.79;100613.59;5023591;28;20624;-75
2023/03/27 06:45:52;;;;;;;5.27;1.83;;;;;;;3.00;79.05;100618.69;5025658;28;20728;-76
2023/03/27 06:48:19;;;;;;;4.37;2.03;;;;;;;3.10;79.11;100618.28;5024820;28;20207;-75
2023/03/27 06:50:50;;;;;;;8.20;2.60;;;;;;;3.21;78.40;100626.66;5028202;28;20206;-78
2023/03/27 06:53:16;;;;;;;6.23;2.27;;;;;;;3.05;78.58;100625.94;5021464;28;20210;-76
2023/03/27 06:55:47;;;;;;;11.47;2.53;;;;;;;3.30;77.97;100635.84;5006894;28;20267;-72
2023/03/27 06:58:15;;;;;;;7.37;2.37;;;;;;;3.77;76.77;100645.84;5017373;28;20203;-71
2023/03/27 07:00:42;;;;;;;3.97;2.17;;;;;;;3.93;75.99;100652.63;5024574;28;20197;-72
2023/03/27 07:03:10;;;;;;;6.77;2.30;;;;;;;4.07;75.61;100658.50;5022810;28;20252;-71
2023/03/27 07:05:39;;;;;;;11.13;2.50;;;;;;;3.90;75.73;100662.97;5026640;28;20199;-71
2023/03/27 07:08:11;;;;;;;5.20;2.47;;;;;;;3.78;76.22;100660.72;5022002;28;20196;-72
2023/03/27 07:10:49;;;;;;;6.40;2.23;;;;;;;3.89;76.40;100668.16;5023591;28;20203;-70
2023/03/27 07:13:36;;;;;;;10.83;2.40;;;;;;;4.08;74.49;100676.91;5022079;28;20203;-71
2023/03/27 07:16:03;;;;;;;10.00;2.30;;;;;;;4.15;74.39;100692.91;5024995;28;20192;-71
2023/03/27 07:18:29;;;;;;;6.53;2.33;;;;;;;4.00;75.38;100690.47;5022916;28;20202;-72
2023/03/27 07:20:56;;;;;;;8.80;2.40;;;;;;;3.83;75.88;100701.94;5026924;28;20761;-72
2023/03/27 07:23:22;;;;;;;12.53;2.87;;;;;;;3.91;76.77;100703.19;5021485;28;20223;-72
2023/03/27 07:25:50;;;;;;;9.83;2.70;;;;;;;4.21;74.40;100704.53;5027850;28;20682;-72
2023/03/27 07:28:17;;;;;;;9.20;2.60;;;;;;;4.30;74.47;100710.19;5023863;28;20195;-71
2023/03/27 07:30:44;;;;;;;7.37;2.60;;;;;;;4.31;74.31;100708.44;5023809;28;20567;-70
2023/03/27 07:33:11;;;;;;;6.73;2.40;;;;;;;4.41;73.78;100713.28;5025566;28;20211;-71
2023/03/27 07:35:46;;;;;;;5.53;2.50;;;;;;;4.53;73.57;100718.16;5024829;28;20192;-70
2023/03/27 07:38:13;;;;;;;7.93;2.23;;;;;;;4.18;74.22;100708.75;5025114;28;20203;-71
2023/03/27 07:40:42;;;;;;;9.97;2.80;;;;;;;4.33;74.17;100714.66;5023038;28;20227;-70
2023/03/27 07:43:08;;;;;;;9.97;2.33;;;;;;;4.34;73.91;100714.72;5024864;28;20207;-71
2023/03/27 07:45:35;;;;;;;9.77;2.27;;;;;;;4.38;73.62;100721.00;5023398;28;20196;-71
2023/03/27 07:48:07;;;;;;;8.63;2.07;;;;;;;4.46;73.40;100726.59;5021320;28;20283;-71
2023/03/27 07:50:35;;;;;;;4.73;1.97;;;;;;;4.35;72.95;100721.75;5023480;28;20191;-73
2023/03/27 07:53:01;;;;;;;7.93;2.10;;;;;;;4.53;72.97;100726.03;5026614;28;20660;-73
2023/03/27 07:55:30;;;;;;;6.27;2.00;;;;;;;4.72;72.86;100731.19;5026197;28;20198;-73
2023/03/27 07:57:57;;;;;;;9.23;2.40;;;;;;;4.91;71.79;100730.25;5025284;28;20262;-73
2023/03/27 08:00:29;;;;;;;7.63;2.63;;;;;;;4.94;68.62;100733.91;5020305;28;20297;-73
2023/03/27 08:03:07;;;;;;;7.40;1.87;;;;;;;5.16;68.38;100732.13;5022382;28;20227;-73
2023/03/27 08:05:35;;;;;;;6.47;2.00;;;;;;;5.26;67.70;100732.59;5018878;28;20764;-73
2023/03/27 08:08:02;;;;;;;5.93;1.80;;;;;;;5.18;66.51;100739.25;5020905;28;20200;-73
2023/03/27 08:10:28;;;;;;;9.17;1.90;;;;;;;5.47;65.96;100740.41;5017960;28;20237;-72
2023/03/27 08:12:54;;;;;;;4.90;1.60;;;;;;;5.55;64.45;100744.22;5018412;28;20221;-73
2023/03/27 08:15:23;;;;;;;4.73;1.60;;;;;;;6.01;64.51;100747.78;5020000;28;20192;-73
2023/03/27 08:17:53;;;;;;;5.73;1.80;;;;;;;6.20;62.56;100745.88;5017276;28;20267;-71
2023/03/27 08:20:20;;;;;;;4.13;1.70;;;;;;;5.86;63.58;100751.56;5017775;28;20200;-72
2023/03/27 08:22:46;;;;;;;10.57;2.07;;;;;;;5.94;63.26;100755.41;5020678;28;20473;-72
2023/03/27 08:25:13;;;;;;;5.47;1.77;;;;;;;5.88;64.23;100759.50;5018663;28;20283;-73
2023/03/27 08:27:39;;;;;;;9.13;2.03;;;;;;;6.18;63.07;100760.69;5018385;28;20294;-73
2023/03/27 08:30:06;;;;;;;6.50;1.60;;;;;;;6.55;61.92;100751.50;5018715;28;20199;-72
2023/03/27 08:32:35;;;;;;;4.20;1.33;;;;;;;6.79;59.96;100756.69;5015992;28;20297;-72
2023/03/27 08:35:02;;;;;;;1.83;1.33;;;;;;;6.85;59.41;100767.47;5021909;28;20628;-73
2023/03/27 08:37:28;;;;;;;6.57;1.70;;;;;;;7.20;61.31;100761.66;5018110;28;20215;-72
2023/03/27 08:39:57;;;;;;;6.60;1.70;;;;;;;7.25;61.28;100761.78;5021230;28;20633;-72
2023/03/27 08:42:36;;;;;;;8.27;1.80;;;;;;;7.34;60.51;100769.09;5014433;28;20233;-72
2023/03/27 08:45:13;;;;;;;4.63;1.60;;;;;;;6.94;59.65;100774.78;5025426;28;20227;-74
2023/03/27 08:47:46;;;;;;;2.73;1.20;;;;;;;6.68;59.38;100780.03;5022349;28;20683;-71
2023/03/27 08:50:50;;;;;;;4.13;1.33;;;;;;;6.35;62.11;100790.22;5024464;28;20203;-72
2023/03/27 08:53:29;;;;;;;5.37;1.53;;;;;;;6.07;62.80;100795.31;5013666;28;20207;-74
2023/03/27 08:55:56;;;;;;;4.27;1.87;;;;;;;5.89;62.73;100808.59;5020520;28;20199;-72
2023/03/27 08:58:22;;;;;;;1.87;1.23;;;;;;;6.01;62.30;100801.25;5023707;28;20217;-71
2023/03/27 09:01:17;;;;;;;5.83;2.03;;;;;;;5.95;62.43;100795.72;5025656;28;20283;-72
2023/03/27 09:03:57;;;;;;;4.53;1.30;;;;;;;5.63;63.09;100805.88;5027723;28;20195;-72
2023/03/27 09:06:28;;;;;;;6.67;1.60;;;;;;;5.57;64.47;100802.06;5024380;28;20199;-72
2023/03/27 09:09:05;;;;;;;5.17;1.37;;;;;;;5.87;64.10;100795.41;5024652;28;20207;-71
2023/03/27 09:11:45;;;;;;;6.93;1.60;;;;;;;6.23;62.00;100789.78;5026236;28;20257;-70
2023/03/27 09:14:36;;;;;;;6.17;1.80;;;;;;;6.76;59.97;100782.91;5024545;28;20282;-72
2023/03/27 09:17:10;;;;;;;5.43;1.40;;;;;;;7.30;58.49;100788.28;5026920;28;20219;-71
2023/03/27 09:19:46;;;;;;;6.63;1.40;;;;;;;8.02;56.65;100781.78;5026886;28;20201;-72
2023/03/27 09:22:20;;;;;;;4.50;1.40;;;;;;;7.84;54.03;100783.84;5021751;28;20225;-72
2023/03/27 09:24:50;;;;;;;7.57;1.47;;;;;;;7.61;55.94;100788.44;5027856;28;20229;-72
2023/03/27 09:27:25;;;;;;;3.50;1.33;;;;;;;6.98;58.37;100780.19;5020526;28;20557;-72
2023/03/27 09:30:17;;;;;;;2.10;1.30;;;;;;;7.17;59.55;100792.22;5028762;28;20199;-72
2023/03/27 09:32:50;;;;;;;5.80;1.97;;;;;;;7.45;59.23;100797.56;5021613;28;20319;-73
2023/03/27 09:35:19;;;;;;;3.70;1.60;;;;;;;7.29;59.76;100799.66;5028116;28;20201;-72
2023/03/27 09:37:49;;;;;;;7.47;1.60;;;;;;;7.02;57.82;100800.53;5025051;28;20614;-72
2023/03/27 09:40:30;;;;;;;3.30;1.70;;;;;;;6.53;59.48;100814.59;5027678;28;20196;-72
2023/03/27 09:43:07;;;;;;;5.67;2.00;;;;;;;6.11;65.07;100832.31;5023639;28;20214;-71
2023/03/27 09:45:37;;;;;;;2.87;1.40;;;;;;;5.46;71.15;100848.03;5022188;28;20250;-72
2023/03/27 09:48:09;;;;;;;5.70;1.20;;;;;;;4.79;75.60;100860.91;5024345;28;20196;-72
2023/03/27 09:50:45;;;;;;;4.37;1.40;;;;;;;4.24;82.84;100872.44;5020749;28;20194;-72
2023/03/27 09:53:19;;;;;;;5.37;1.47;;;;;;;3.44;87.35;100886.06;5022564;28;20216;-73
2023/03/27 09:55:51;;;;;;;5.67;1.33;;;;;;;3.04;91.50;100879.63;5023269;28;20197;-74
2023/03/27 09:58:32;;;;;;;2.07;1.27;;;;;;;3.12;94.40;100875.69;5026316;28;20196;-72
2023/03/27 10:01:19;;;;;;;3.60;1.30;;;;;;;3.63;96.63;100873.88;5023513;28;20215;-73
2023/03/27 10:03:53;;;;;;;2.00;1.33;;;;;;;4.14;95.43;100875.47;5024074;28;20277;-73
2023/03/27 10:06:25;;;;;;;4.13;1.57;;;;;;;4.40;90.16;100863.53;5026400;28;20514;-72
2023/03/27 10:08:54;;;;;;;4.03;1.90;;;;;;;4.67;91.09;100869.16;5026720;28;21069;-71
2023/03/27 10:11:31;;;;;;;2.73;1.70;;;;;;;5.12;90.93;100864.09;5024862;28;20600;-74
2023/03/27 10:14:00;;;;;;;5.03;1.70;;;;;;;5.36;90.30;100857.28;5024330;28;20221;-74
2023/03/27 10:16:28;;;;;;;3.20;1.50;;;;;;;5.53;90.14;100865.84;5027669;28;20712;-73
2023/03/27 10:18:57;;;;;;;2.50;1.40;;;;;;;5.50;87.23;100858.72;5028597;28;20215;-73
2023/03/27 10:21:30;;;;;;;3.33;1.40;;;;;;;5.00;87.17;100868.00;5026989;28;20221;-73
2023/03/27 10:24:03;;;;;;;3.87;1.20;;;;;;;4.91;87.14;100862.38;5021021;28;20210;-73
2023/03/27 10:26:31;;;;;;;2.67;1.53;;;;;;;5.01;86.91;100872.44;5023033;28;20208;-72
2023/03/27 10:29:05;;;;;;;2.33;1.40;;;;;;;5.10;87.09;100856.16;5028477;28;20275;-72
2023/03/27 10:31:36;;;;;;;4.63;1.63;;;;;;;5.38;85.15;100850.34;5024777;28;20223;-72
2023/03/27 10:34:05;;;;;;;3.07;1.83;;;;;;;6.02;84.09;100846.84;5023415;28;20191;-73
2023/03/27 10:36:37;;;;;;;2.33;1.63;;;;;;;6.49;82.18;100846.00;5026468;28;20199;-73
2023/03/27 10:39:11;;;;;;;2.00;1.40;;;;;;;6.88;76.68;100830.75;5020997;28;20755;-72
2023/03/27 10:41:38;;;;;;;2.43;1.50;;;;;;;7.20;75.89;100837.09;5023015;28;20477;-73
2023/03/27 10:44:13;;;;;;;3.57;1.70;;;;;;;6.75;74.67;100847.81;5018872;28;20231;-72
2023/03/27 10:46:41;;;;;;;2.60;1.60;;;;;;;5.92;74.49;100843.81;5019256;28;20199;-73
2023/03/27 10:49:24;;;;;;;3.57;1.60;;;;;;;6.22;78.51;100848.47;5021243;28;20203;-75
2023/03/27 10:51:56;;;;;;;4.77;1.90;;;;;;;6.06;73.21;100854.00;5026911;28;20231;-75
2023/03/27 10:54:33;;;;;;;1.80;1.43;;;;;;;6.27;72.85;100844.28;5024341;28;20198;-73
2023/03/27 10:57:14;;;;;;;4.27;1.80;;;;;;;6.45;69.33;100842.38;5026080;28;20206;-71
2023/03/27 10:59:53;;;;;;;3.33;1.57;;;;;;;6.66;67.23;100839.59;5029438;28;20198;-72
2023/03/27 11:02:26;;;;;;;4.57;1.90;;;;;;;6.75;64.27;100839.94;5026860;28;20314;-72
2023/03/27 11:05:14;;;;;;;3.47;1.97;;;;;;;7.06;59.76;100841.03;5024616;28;20214;-71
2023/03/27 11:07:46;;;;;;;4.53;1.90;;;;;;;7.38;60.97;100840.38;5026786;28;20192;-73
2023/03/27 11:10:19;;;;;;;3.27;1.60;;;;;;;7.80;57.64;100850.53;5028765;28;20206;-72
2023/03/27 11:12:53;;;;;;;2.83;1.73;;;;;;;7.53;59.81;100867.22;5024416;28;20274;-72
2023/03/27 11:15:37;;;;;;;1.67;1.27;;;;;;;5.71;74.91;100873.59;5024007;28;20710;-72
2023/03/27 11:18:25;;;;;;;1.63;1.37;;;;;;;4.72;81.79;100912.22;5028681;28;20193;-76
2023/03/27 11:21:11;;;;;;;1.43;1.33;;;;;;;3.85;85.77;100902.91;5026510;28;20198;-77
2023/03/27 11:23:48;;;;;;;1.57;1.20;;;;;;;3.44;88.24;100906.09;5024993;28;20232;-76
2023/03/27 11:26:17;;;;;;;2.53;1.60;;;;;;;3.35;91.21;100903.94;5023790;28;20223;-76
2023/03/27 11:29:08;;;;;;;2.63;1.90;;;;;;;3.36;92.58;100904.81;5020458;28;20265;-76
2023/03/27 11:31:42;;;;;;;3.20;1.87;;;;;;;3.51;92.87;100902.06;5021907;28;20234;-76
2023/03/27 11:34:25;;;;;;;4.40;2.20;;;;;;;3.75;91.04;100891.09;5016606;28;20199;-76
2023/03/27 11:37:04;;;;;;;2.83;2.23;;;;;;;3.95;89.46;100893.75;5016584;28;20579;-72
2023/03/27 11:39:41;;;;;;;2.57;1.70;;;;;;;4.30;89.34;100895.41;5017708;28;20755;-72
2023/03/27 11:42:21;;;;;;;4.00;2.27;;;;;;;4.53;87.70;100899.13;5018040;28;20711;-72
2023/03/27 11:44:48;;;;;;;2.50;2.00;;;;;;;4.71;84.89;100903.44;5018416;28;20220;-73
2023/03/27 11:47:42;;;;;;;7.07;2.03;;;;;;;4.90;83.56;100891.16;5017815;28;20250;-73
2023/03/27 11:50:34;;;;;;;3.00;2.23;;;;;;;5.11;84.26;100896.44;5015948;28;20253;-73
2023/03/27 11:53:46;;;;;;;4.63;1.80;;;;;;;5.43;81.26;100909.22;5018435;28;20304;-73
2023/03/27 11:56:27;;;;;;;5.07;2.23;;;;;;;5.63;82.55;100903.09;5022179;28;20198;-72
2023/03/27 11:59:17;;;;;;;5.50;2.30;;;;;;;5.81;73.99;100896.78;5025549;28;20196;-72